sensor_id;sensor_type;location;lat;lon;timestamp;P1;durP1;ratioP1;P2;durP2;ratioP2
568;SDS011;269;48.884;9.192;2023-09-07T00:01:19;6.30;;;5.83;;
568;SDS011;269;48.884;9.192;2023-09-07T00:03:46;5.40;;;5.00;;
568;SDS011;269;48.884;9.192;2023-09-07T00:06:12;6.10;;;5.60;;
568;SDS011;269;48.884;9.192;2023-09-07T00:08:39;5.50;;;5.10;;
568;SDS011;269;48.884;9.192;2023-09-07T00:11:06;5.63;;;5.13;;
568;SDS011;269;48.884;9.192;2023-09-07T00:13:34;5.00;;;4.60;;
568;SDS011;269;48.884;9.192;2023-09-07T00:16:01;5.33;;;4.87;;
568;SDS011;269;48.884;9.192;2023-09-07T00:18:30;5.93;;;5.17;;
568;SDS011;269;48.884;9.192;2023-09-07T00:23:32;5.67;;;5.17;;
568;SDS011;269;48.884;9.192;2023-09-07T00:25:59;5.80;;;5.30;;
568;SDS011;269;48.884;9.192;2023-09-07T00:28:26;5.50;;;5.00;;
568;SDS011;269;48.884;9.192;2023-09-07T00:30:53;6.10;;;5.60;;
568;SDS011;269;48.884;9.192;2023-09-07T00:33:20;5.83;;;5.33;;
568;SDS011;269;48.884;9.192;2023-09-07T00:35:48;5.53;;;5.03;;
568;SDS011;269;48.884;9.192;2023-09-07T00:38:14;5.43;;;5.03;;
568;SDS011;269;48.884;9.192;2023-09-07T00:40:42;5.83;;;5.37;;
568;SDS011;269;48.884;9.192;2023-09-07T00:43:09;6.50;;;5.53;;
568;SDS011;269;48.884;9.192;2023-09-07T00:45:35;5.40;;;4.90;;
568;SDS011;269;48.884;9.192;2023-09-07T00:48:03;5.57;;;5.17;;
568;SDS011;269;48.884;9.192;2023-09-07T00:50:30;5.80;;;5.40;;
568;SDS011;269;48.884;9.192;2023-09-07T00:52:58;4.97;;;4.60;;
568;SDS011;269;48.884;9.192;2023-09-07T00:55:28;4.83;;;4.40;;
568;SDS011;269;48.884;9.192;2023-09-07T00:57:59;5.03;;;4.73;;
568;SDS011;269;48.884;9.192;2023-09-07T01:00:25;5.10;;;4.70;;
568;SDS011;269;48.884;9.192;2023-09-07T01:02:53;4.10;;;3.80;;
568;SDS011;269;48.884;9.192;2023-09-07T01:05:21;4.53;;;4.23;;
568;SDS011;269;48.884;9.192;2023-09-07T01:07:53;3.90;;;3.60;;
568;SDS011;269;48.884;9.192;2023-09-07T01:10:23;4.23;;;3.93;;
568;SDS011;269;48.884;9.192;2023-09-07T01:12:49;4.70;;;4.33;;
568;SDS011;269;48.884;9.192;2023-09-07T01:15:16;4.10;;;3.80;;
568;SDS011;269;48.884;9.192;2023-09-07T01:17:43;5.00;;;4.60;;
568;SDS011;269;48.884;9.192;2023-09-07T01:20:10;5.10;;;4.67;;
568;SDS011;269;48.884;9.192;2023-09-07T01:22:43;5.20;;;4.43;;
568;SDS011;269;48.884;9.192;2023-09-07T01:25:10;6.00;;;5.40;;
568;SDS011;269;48.884;9.192;2023-09-07T01:27:37;5.80;;;5.37;;
568;SDS011;269;48.884;9.192;2023-09-07T01:30:05;6.37;;;5.47;;
568;SDS011;269;48.884;9.192;2023-09-07T01:32:34;6.00;;;5.50;;
568;SDS011;269;48.884;9.192;2023-09-07T01:35:01;5.70;;;5.20;;
568;SDS011;269;48.884;9.192;2023-09-07T01:37:32;5.87;;;5.27;;
568;SDS011;269;48.884;9.192;2023-09-07T01:40:00;6.13;;;5.53;;
568;SDS011;269;48.884;9.192;2023-09-07T01:42:29;6.10;;;5.50;;
568;SDS011;269;48.884;9.192;2023-09-07T01:44:56;6.00;;;5.50;;
568;SDS011;269;48.884;9.192;2023-09-07T01:47:23;5.67;;;5.23;;
568;SDS011;269;48.884;9.192;2023-09-07T01:49:49;4.80;;;4.40;;
568;SDS011;269;48.884;9.192;2023-09-07T01:52:16;5.83;;;5.33;;
568;SDS011;269;48.884;9.192;2023-09-07T01:54:43;6.07;;;5.57;;
568;SDS011;269;48.884;9.192;2023-09-07T01:57:11;6.20;;;5.70;;
568;SDS011;269;48.884;9.192;2023-09-07T01:59:38;5.80;;;5.30;;
568;SDS011;269;48.884;9.192;2023-09-07T02:02:05;6.00;;;5.60;;
568;SDS011;269;48.884;9.192;2023-09-07T02:04:31;6.30;;;5.80;;
568;SDS011;269;48.884;9.192;2023-09-07T02:06:58;5.10;;;4.70;;
568;SDS011;269;48.884;9.192;2023-09-07T02:09:25;6.93;;;5.50;;
568;SDS011;269;48.884;9.192;2023-09-07T02:11:52;7.23;;;5.30;;
568;SDS011;269;48.884;9.192;2023-09-07T02:14:20;5.87;;;5.40;;
568;SDS011;269;48.884;9.192;2023-09-07T02:16:47;6.17;;;5.57;;
568;SDS011;269;48.884;9.192;2023-09-07T02:19:13;6.27;;;5.77;;
568;SDS011;269;48.884;9.192;2023-09-07T02:21:40;7.00;;;6.50;;
568;SDS011;269;48.884;9.192;2023-09-07T02:24:07;6.57;;;6.07;;
568;SDS011;269;48.884;9.192;2023-09-07T02:26:34;6.70;;;6.10;;
568;SDS011;269;48.884;9.192;2023-09-07T02:29:01;6.73;;;6.13;;
568;SDS011;269;48.884;9.192;2023-09-07T02:31:32;6.70;;;6.20;;
568;SDS011;269;48.884;9.192;2023-09-07T02:33:58;7.57;;;6.87;;
568;SDS011;269;48.884;9.192;2023-09-07T02:36:25;7.23;;;6.63;;
568;SDS011;269;48.884;9.192;2023-09-07T02:38:52;6.73;;;6.23;;
568;SDS011;269;48.884;9.192;2023-09-07T02:41:18;6.50;;;6.00;;
568;SDS011;269;48.884;9.192;2023-09-07T02:43:45;6.50;;;6.00;;
568;SDS011;269;48.884;9.192;2023-09-07T02:46:12;6.37;;;5.77;;
568;SDS011;269;48.884;9.192;2023-09-07T02:48:40;7.40;;;6.80;;
568;SDS011;269;48.884;9.192;2023-09-07T02:51:07;5.73;;;5.33;;
568;SDS011;269;48.884;9.192;2023-09-07T02:53:34;8.33;;;6.23;;
568;SDS011;269;48.884;9.192;2023-09-07T02:56:01;6.97;;;6.47;;
568;SDS011;269;48.884;9.192;2023-09-07T02:58:30;7.30;;;6.70;;
568;SDS011;269;48.884;9.192;2023-09-07T03:00:56;7.27;;;6.67;;
568;SDS011;269;48.884;9.192;2023-09-07T03:03:23;9.23;;;8.33;;
568;SDS011;269;48.884;9.192;2023-09-07T03:05:51;9.37;;;8.57;;
568;SDS011;269;48.884;9.192;2023-09-07T03:08:18;8.73;;;7.93;;
568;SDS011;269;48.884;9.192;2023-09-07T03:10:45;7.73;;;6.90;;
568;SDS011;269;48.884;9.192;2023-09-07T03:13:12;7.87;;;7.27;;
568;SDS011;269;48.884;9.192;2023-09-07T03:15:39;8.87;;;8.07;;
568;SDS011;269;48.884;9.192;2023-09-07T03:18:05;9.93;;;9.03;;
568;SDS011;269;48.884;9.192;2023-09-07T03:20:32;9.43;;;8.53;;
568;SDS011;269;48.884;9.192;2023-09-07T03:23:01;8.10;;;7.50;;
568;SDS011;269;48.884;9.192;2023-09-07T03:25:29;8.90;;;8.20;;
568;SDS011;269;48.884;9.192;2023-09-07T03:27:56;8.67;;;7.97;;
568;SDS011;269;48.884;9.192;2023-09-07T03:30:22;7.70;;;6.90;;
568;SDS011;269;48.884;9.192;2023-09-07T03:32:49;8.10;;;7.30;;
568;SDS011;269;48.884;9.192;2023-09-07T03:35:16;9.03;;;8.13;;
568;SDS011;269;48.884;9.192;2023-09-07T03:37:43;11.00;;;9.90;;
568;SDS011;269;48.884;9.192;2023-09-07T03:40:11;11.80;;;10.30;;
568;SDS011;269;48.884;9.192;2023-09-07T03:42:38;12.50;;;9.80;;
568;SDS011;269;48.884;9.192;2023-09-07T03:45:05;9.57;;;8.60;;
568;SDS011;269;48.884;9.192;2023-09-07T03:47:32;10.57;;;9.53;;
568;SDS011;269;48.884;9.192;2023-09-07T03:49:59;10.00;;;9.10;;
568;SDS011;269;48.884;9.192;2023-09-07T03:52:26;10.97;;;10.07;;
568;SDS011;269;48.884;9.192;2023-09-07T03:54:53;10.00;;;9.20;;
568;SDS011;269;48.884;9.192;2023-09-07T03:57:22;9.90;;;9.00;;
568;SDS011;269;48.884;9.192;2023-09-07T03:59:49;9.80;;;8.80;;
568;SDS011;269;48.884;9.192;2023-09-07T04:02:15;10.23;;;9.03;;
568;SDS011;269;48.884;9.192;2023-09-07T04:04:43;10.20;;;9.30;;
568;SDS011;269;48.884;9.192;2023-09-07T04:07:14;10.57;;;9.70;;
568;SDS011;269;48.884;9.192;2023-09-07T04:09:41;10.73;;;9.73;;
568;SDS011;269;48.884;9.192;2023-09-07T04:12:09;9.63;;;8.83;;
568;SDS011;269;48.884;9.192;2023-09-07T04:14:37;10.80;;;9.70;;
568;SDS011;269;48.884;9.192;2023-09-07T04:17:04;9.87;;;9.00;;
568;SDS011;269;48.884;9.192;2023-09-07T04:19:31;11.00;;;9.90;;
568;SDS011;269;48.884;9.192;2023-09-07T04:21:58;9.50;;;8.70;;
568;SDS011;269;48.884;9.192;2023-09-07T04:24:25;10.83;;;9.73;;
568;SDS011;269;48.884;9.192;2023-09-07T04:26:52;10.10;;;9.20;;
568;SDS011;269;48.884;9.192;2023-09-07T04:29:19;11.73;;;10.70;;
568;SDS011;269;48.884;9.192;2023-09-07T04:31:48;11.20;;;10.30;;
568;SDS011;269;48.884;9.192;2023-09-07T04:34:14;10.50;;;9.50;;
568;SDS011;269;48.884;9.192;2023-09-07T04:36:41;9.13;;;8.33;;
568;SDS011;269;48.884;9.192;2023-09-07T04:39:08;8.90;;;8.20;;
568;SDS011;269;48.884;9.192;2023-09-07T04:41:36;9.60;;;8.70;;
568;SDS011;269;48.884;9.192;2023-09-07T04:44:03;8.33;;;7.53;;
568;SDS011;269;48.884;9.192;2023-09-07T04:46:30;8.00;;;7.30;;
568;SDS011;269;48.884;9.192;2023-09-07T04:48:58;7.60;;;6.90;;
568;SDS011;269;48.884;9.192;2023-09-07T04:51:25;7.90;;;7.20;;
568;SDS011;269;48.884;9.192;2023-09-07T04:53:52;8.00;;;7.30;;
568;SDS011;269;48.884;9.192;2023-09-07T04:56:19;7.90;;;7.20;;
568;SDS011;269;48.884;9.192;2023-09-07T04:58:47;7.33;;;6.73;;
568;SDS011;269;48.884;9.192;2023-09-07T05:01:14;7.50;;;6.90;;
568;SDS011;269;48.884;9.192;2023-09-07T05:03:41;8.10;;;7.50;;
568;SDS011;269;48.884;9.192;2023-09-07T05:06:11;7.50;;;6.90;;
568;SDS011;269;48.884;9.192;2023-09-07T05:08:38;8.03;;;7.43;;
568;SDS011;269;48.884;9.192;2023-09-07T05:11:04;8.00;;;7.30;;
568;SDS011;269;48.884;9.192;2023-09-07T05:13:31;8.40;;;7.73;;
568;SDS011;269;48.884;9.192;2023-09-07T05:15:59;9.20;;;8.40;;
568;SDS011;269;48.884;9.192;2023-09-07T05:18:26;8.80;;;8.10;;
568;SDS011;269;48.884;9.192;2023-09-07T05:20:53;9.27;;;8.50;;
568;SDS011;269;48.884;9.192;2023-09-07T05:23:22;9.77;;;8.93;;
568;SDS011;269;48.884;9.192;2023-09-07T05:25:50;10.67;;;9.70;;
568;SDS011;269;48.884;9.192;2023-09-07T05:28:18;11.13;;;10.23;;
568;SDS011;269;48.884;9.192;2023-09-07T05:30:46;9.43;;;8.53;;
568;SDS011;269;48.884;9.192;2023-09-07T05:33:13;12.23;;;11.03;;
568;SDS011;269;48.884;9.192;2023-09-07T05:35:41;10.77;;;9.77;;
568;SDS011;269;48.884;9.192;2023-09-07T05:38:08;11.97;;;10.87;;
568;SDS011;269;48.884;9.192;2023-09-07T05:40:37;12.07;;;10.90;;
568;SDS011;269;48.884;9.192;2023-09-07T05:43:05;11.43;;;10.53;;
568;SDS011;269;48.884;9.192;2023-09-07T05:45:33;10.90;;;10.00;;
568;SDS011;269;48.884;9.192;2023-09-07T05:48:02;10.10;;;9.20;;
568;SDS011;269;48.884;9.192;2023-09-07T05:50:29;10.77;;;9.87;;
568;SDS011;269;48.884;9.192;2023-09-07T05:52:56;9.17;;;8.47;;
568;SDS011;269;48.884;9.192;2023-09-07T05:55:23;10.63;;;9.50;;
568;SDS011;269;48.884;9.192;2023-09-07T05:57:53;8.67;;;7.87;;
568;SDS011;269;48.884;9.192;2023-09-07T06:00:20;8.17;;;7.47;;
568;SDS011;269;48.884;9.192;2023-09-07T06:02:47;9.83;;;8.83;;
568;SDS011;269;48.884;9.192;2023-09-07T06:05:14;8.00;;;7.30;;
568;SDS011;269;48.884;9.192;2023-09-07T06:07:41;7.93;;;7.33;;
568;SDS011;269;48.884;9.192;2023-09-07T06:10:08;7.00;;;6.43;;
568;SDS011;269;48.884;9.192;2023-09-07T06:12:35;7.53;;;6.90;;
568;SDS011;269;48.884;9.192;2023-09-07T06:15:04;8.10;;;7.50;;
568;SDS011;269;48.884;9.192;2023-09-07T06:17:31;6.37;;;5.80;;
568;SDS011;269;48.884;9.192;2023-09-07T06:19:58;6.23;;;5.73;;
568;SDS011;269;48.884;9.192;2023-09-07T06:22:25;6.30;;;5.70;;
568;SDS011;269;48.884;9.192;2023-09-07T06:24:52;5.63;;;5.20;;
568;SDS011;269;48.884;9.192;2023-09-07T06:27:18;6.47;;;5.87;;
568;SDS011;269;48.884;9.192;2023-09-07T06:29:47;5.40;;;4.93;;
568;SDS011;269;48.884;9.192;2023-09-07T06:32:15;5.53;;;5.10;;
568;SDS011;269;48.884;9.192;2023-09-07T06:34:42;4.93;;;4.53;;
568;SDS011;269;48.884;9.192;2023-09-07T06:37:09;5.30;;;4.90;;
568;SDS011;269;48.884;9.192;2023-09-07T06:39:36;5.40;;;4.93;;
568;SDS011;269;48.884;9.192;2023-09-07T06:42:03;5.83;;;5.27;;
568;SDS011;269;48.884;9.192;2023-09-07T06:44:30;5.73;;;5.13;;
568;SDS011;269;48.884;9.192;2023-09-07T06:46:57;5.40;;;4.90;;
568;SDS011;269;48.884;9.192;2023-09-07T06:49:25;6.07;;;5.57;;
568;SDS011;269;48.884;9.192;2023-09-07T06:51:55;4.93;;;4.60;;
568;SDS011;269;48.884;9.192;2023-09-07T06:54:22;4.97;;;4.57;;
568;SDS011;269;48.884;9.192;2023-09-07T06:56:48;5.73;;;5.23;;
568;SDS011;269;48.884;9.192;2023-09-07T06:59:15;4.90;;;4.60;;
568;SDS011;269;48.884;9.192;2023-09-07T07:01:42;6.10;;;5.30;;
568;SDS011;269;48.884;9.192;2023-09-07T07:04:09;5.50;;;4.90;;
568;SDS011;269;48.884;9.192;2023-09-07T07:06:37;5.20;;;4.90;;
568;SDS011;269;48.884;9.192;2023-09-07T07:09:05;5.17;;;4.77;;
568;SDS011;269;48.884;9.192;2023-09-07T07:11:32;5.70;;;5.30;;
568;SDS011;269;48.884;9.192;2023-09-07T07:13:58;5.33;;;4.83;;
568;SDS011;269;48.884;9.192;2023-09-07T07:16:25;5.13;;;4.67;;
568;SDS011;269;48.884;9.192;2023-09-07T07:18:52;5.77;;;5.30;;
568;SDS011;269;48.884;9.192;2023-09-07T07:21:19;5.27;;;4.90;;
568;SDS011;269;48.884;9.192;2023-09-07T07:23:47;6.20;;;5.80;;
568;SDS011;269;48.884;9.192;2023-09-07T07:26:14;5.53;;;5.13;;
568;SDS011;269;48.884;9.192;2023-09-07T07:28:41;6.30;;;5.73;;
568;SDS011;269;48.884;9.192;2023-09-07T07:31:08;6.80;;;5.70;;
568;SDS011;269;48.884;9.192;2023-09-07T07:33:36;5.87;;;5.47;;
568;SDS011;269;48.884;9.192;2023-09-07T07:36:03;5.77;;;5.37;;
568;SDS011;269;48.884;9.192;2023-09-07T07:38:30;5.57;;;5.10;;
568;SDS011;269;48.884;9.192;2023-09-07T07:40:59;5.90;;;5.40;;
568;SDS011;269;48.884;9.192;2023-09-07T07:43:25;5.50;;;5.10;;
568;SDS011;269;48.884;9.192;2023-09-07T07:45:53;5.70;;;5.20;;
568;SDS011;269;48.884;9.192;2023-09-07T07:48:20;5.47;;;4.97;;
568;SDS011;269;48.884;9.192;2023-09-07T07:50:47;5.80;;;5.30;;
568;SDS011;269;48.884;9.192;2023-09-07T07:53:14;6.10;;;5.60;;
568;SDS011;269;48.884;9.192;2023-09-07T07:55:41;6.40;;;5.93;;
568;SDS011;269;48.884;9.192;2023-09-07T07:58:09;6.50;;;6.00;;
568;SDS011;269;48.884;9.192;2023-09-07T08:00:36;7.10;;;6.40;;
568;SDS011;269;48.884;9.192;2023-09-07T08:03:04;6.93;;;6.27;;
568;SDS011;269;48.884;9.192;2023-09-07T08:05:32;6.87;;;6.37;;
568;SDS011;269;48.884;9.192;2023-09-07T08:08:00;7.77;;;7.17;;
568;SDS011;269;48.884;9.192;2023-09-07T08:10:27;7.10;;;6.50;;
568;SDS011;269;48.884;9.192;2023-09-07T08:12:54;7.33;;;6.73;;
568;SDS011;269;48.884;9.192;2023-09-07T08:15:23;7.17;;;6.67;;
568;SDS011;269;48.884;9.192;2023-09-07T08:17:50;6.70;;;6.17;;
568;SDS011;269;48.884;9.192;2023-09-07T08:20:17;6.10;;;5.60;;
568;SDS011;269;48.884;9.192;2023-09-07T08:22:44;7.57;;;6.13;;
568;SDS011;269;48.884;9.192;2023-09-07T08:25:11;7.20;;;6.70;;
568;SDS011;269;48.884;9.192;2023-09-07T08:27:39;5.60;;;5.17;;
568;SDS011;269;48.884;9.192;2023-09-07T08:30:10;6.17;;;5.67;;
568;SDS011;269;48.884;9.192;2023-09-07T08:32:39;6.00;;;5.50;;
568;SDS011;269;48.884;9.192;2023-09-07T08:35:06;4.97;;;4.67;;
568;SDS011;269;48.884;9.192;2023-09-07T08:37:34;6.23;;;5.20;;
568;SDS011;269;48.884;9.192;2023-09-07T08:40:02;6.83;;;4.90;;
568;SDS011;269;48.884;9.192;2023-09-07T08:42:32;5.43;;;4.93;;
568;SDS011;269;48.884;9.192;2023-09-07T08:45:00;6.37;;;5.70;;
568;SDS011;269;48.884;9.192;2023-09-07T08:47:28;5.90;;;5.50;;
568;SDS011;269;48.884;9.192;2023-09-07T08:49:58;6.60;;;6.10;;
568;SDS011;269;48.884;9.192;2023-09-07T08:52:25;6.10;;;5.50;;
568;SDS011;269;48.884;9.192;2023-09-07T08:54:52;5.90;;;5.50;;
568;SDS011;269;48.884;9.192;2023-09-07T08:57:19;5.70;;;5.20;;
568;SDS011;269;48.884;9.192;2023-09-07T08:59:48;6.43;;;5.40;;
568;SDS011;269;48.884;9.192;2023-09-07T09:02:17;4.80;;;4.50;;
568;SDS011;269;48.884;9.192;2023-09-07T09:04:44;5.47;;;5.07;;
568;SDS011;269;48.884;9.192;2023-09-07T09:07:12;5.13;;;4.80;;
568;SDS011;269;48.884;9.192;2023-09-07T09:09:39;5.83;;;5.30;;
568;SDS011;269;48.884;9.192;2023-09-07T09:12:06;5.70;;;5.20;;
568;SDS011;269;48.884;9.192;2023-09-07T09:14:34;5.70;;;5.40;;
568;SDS011;269;48.884;9.192;2023-09-07T09:17:01;5.73;;;5.43;;
568;SDS011;269;48.884;9.192;2023-09-07T09:19:31;5.53;;;5.17;;
568;SDS011;269;48.884;9.192;2023-09-07T09:21:58;5.93;;;5.53;;
568;SDS011;269;48.884;9.192;2023-09-07T09:24:26;5.43;;;4.93;;
568;SDS011;269;48.884;9.192;2023-09-07T09:26:53;6.03;;;5.63;;
568;SDS011;269;48.884;9.192;2023-09-07T09:29:21;6.57;;;6.07;;
568;SDS011;269;48.884;9.192;2023-09-07T09:31:50;6.67;;;6.10;;
568;SDS011;269;48.884;9.192;2023-09-07T09:34:18;5.30;;;4.90;;
568;SDS011;269;48.884;9.192;2023-09-07T09:36:45;5.33;;;4.93;;
568;SDS011;269;48.884;9.192;2023-09-07T09:39:21;5.93;;;5.53;;
568;SDS011;269;48.884;9.192;2023-09-07T09:41:51;4.70;;;4.50;;
568;SDS011;269;48.884;9.192;2023-09-07T09:44:19;5.43;;;5.03;;
568;SDS011;269;48.884;9.192;2023-09-07T09:46:47;5.90;;;5.50;;
568;SDS011;269;48.884;9.192;2023-09-07T09:49:16;5.67;;;5.20;;
568;SDS011;269;48.884;9.192;2023-09-07T09:51:43;5.43;;;5.03;;
568;SDS011;269;48.884;9.192;2023-09-07T09:54:11;4.90;;;4.60;;
568;SDS011;269;48.884;9.192;2023-09-07T09:56:39;5.60;;;4.67;;
568;SDS011;269;48.884;9.192;2023-09-07T09:59:07;6.93;;;5.10;;
568;SDS011;269;48.884;9.192;2023-09-07T10:01:37;6.00;;;5.43;;
568;SDS011;269;48.884;9.192;2023-09-07T10:04:08;4.90;;;4.50;;
568;SDS011;269;48.884;9.192;2023-09-07T10:06:35;4.70;;;4.30;;
568;SDS011;269;48.884;9.192;2023-09-07T10:09:02;4.80;;;4.50;;
568;SDS011;269;48.884;9.192;2023-09-07T10:11:32;4.77;;;4.47;;
568;SDS011;269;48.884;9.192;2023-09-07T10:14:00;5.03;;;4.73;;
568;SDS011;269;48.884;9.192;2023-09-07T10:16:30;5.23;;;4.83;;
568;SDS011;269;48.884;9.192;2023-09-07T10:19:13;4.50;;;4.10;;
568;SDS011;269;48.884;9.192;2023-09-07T10:21:40;4.67;;;4.37;;
568;SDS011;269;48.884;9.192;2023-09-07T10:24:08;5.27;;;4.90;;
568;SDS011;269;48.884;9.192;2023-09-07T10:26:35;5.30;;;4.90;;
568;SDS011;269;48.884;9.192;2023-09-07T10:29:01;5.57;;;5.07;;
568;SDS011;269;48.884;9.192;2023-09-07T10:31:32;4.80;;;4.50;;
568;SDS011;269;48.884;9.192;2023-09-07T10:34:08;4.90;;;4.50;;
568;SDS011;269;48.884;9.192;2023-09-07T10:36:36;5.10;;;4.80;;
568;SDS011;269;48.884;9.192;2023-09-07T10:39:03;6.03;;;5.43;;
568;SDS011;269;48.884;9.192;2023-09-07T10:41:39;5.10;;;4.70;;
568;SDS011;269;48.884;9.192;2023-09-07T10:44:07;4.90;;;4.60;;
568;SDS011;269;48.884;9.192;2023-09-07T10:46:38;4.83;;;4.43;;
568;SDS011;269;48.884;9.192;2023-09-07T10:49:06;5.00;;;4.63;;
568;SDS011;269;48.884;9.192;2023-09-07T10:51:39;5.17;;;4.87;;
568;SDS011;269;48.884;9.192;2023-09-07T10:54:13;4.70;;;4.40;;
568;SDS011;269;48.884;9.192;2023-09-07T10:56:43;4.80;;;4.50;;
568;SDS011;269;48.884;9.192;2023-09-07T10:59:10;4.97;;;4.57;;
568;SDS011;269;48.884;9.192;2023-09-07T11:01:38;5.93;;;4.90;;
568;SDS011;269;48.884;9.192;2023-09-07T11:04:05;4.70;;;4.37;;
568;SDS011;269;48.884;9.192;2023-09-07T11:06:33;5.00;;;4.60;;
568;SDS011;269;48.884;9.192;2023-09-07T11:09:02;4.40;;;4.00;;
568;SDS011;269;48.884;9.192;2023-09-07T11:11:31;4.27;;;3.97;;
568;SDS011;269;48.884;9.192;2023-09-07T11:13:58;5.70;;;5.17;;
568;SDS011;269;48.884;9.192;2023-09-07T11:16:25;4.77;;;4.20;;
568;SDS011;269;48.884;9.192;2023-09-07T11:18:54;5.40;;;4.50;;
568;SDS011;269;48.884;9.192;2023-09-07T11:21:20;4.70;;;4.30;;
568;SDS011;269;48.884;9.192;2023-09-07T11:23:48;4.70;;;4.30;;
568;SDS011;269;48.884;9.192;2023-09-07T11:26:15;4.83;;;4.53;;
568;SDS011;269;48.884;9.192;2023-09-07T11:28:44;5.33;;;4.50;;
568;SDS011;269;48.884;9.192;2023-09-07T11:31:11;4.50;;;4.20;;
568;SDS011;269;48.884;9.192;2023-09-07T11:33:40;5.30;;;4.90;;
568;SDS011;269;48.884;9.192;2023-09-07T11:36:08;4.17;;;3.93;;
568;SDS011;269;48.884;9.192;2023-09-07T11:38:36;4.70;;;4.40;;
568;SDS011;269;48.884;9.192;2023-09-07T11:41:03;4.83;;;4.43;;
568;SDS011;269;48.884;9.192;2023-09-07T11:43:30;4.37;;;4.07;;
568;SDS011;269;48.884;9.192;2023-09-07T11:45:58;4.77;;;4.47;;
568;SDS011;269;48.884;9.192;2023-09-07T11:48:26;5.03;;;4.30;;
568;SDS011;269;48.884;9.192;2023-09-07T11:50:53;4.67;;;4.37;;
568;SDS011;269;48.884;9.192;2023-09-07T11:53:21;4.83;;;4.43;;
568;SDS011;269;48.884;9.192;2023-09-07T11:55:48;4.97;;;4.67;;
568;SDS011;269;48.884;9.192;2023-09-07T11:58:16;5.07;;;4.77;;
568;SDS011;269;48.884;9.192;2023-09-07T12:00:43;5.00;;;4.60;;
568;SDS011;269;48.884;9.192;2023-09-07T12:03:10;5.33;;;4.83;;
568;SDS011;269;48.884;9.192;2023-09-07T12:05:37;4.70;;;4.30;;
568;SDS011;269;48.884;9.192;2023-09-07T12:08:05;5.20;;;4.47;;
568;SDS011;269;48.884;9.192;2023-09-07T12:10:33;4.47;;;4.20;;
568;SDS011;269;48.884;9.192;2023-09-07T12:13:00;4.60;;;4.30;;
568;SDS011;269;48.884;9.192;2023-09-07T12:15:27;4.57;;;4.23;;
568;SDS011;269;48.884;9.192;2023-09-07T12:17:53;3.90;;;3.70;;
568;SDS011;269;48.884;9.192;2023-09-07T12:20:21;4.90;;;4.40;;
568;SDS011;269;48.884;9.192;2023-09-07T12:22:48;4.53;;;4.33;;
568;SDS011;269;48.884;9.192;2023-09-07T12:25:15;4.70;;;4.30;;
568;SDS011;269;48.884;9.192;2023-09-07T12:27:43;4.87;;;4.47;;
568;SDS011;269;48.884;9.192;2023-09-07T12:30:12;5.07;;;4.67;;
568;SDS011;269;48.884;9.192;2023-09-07T12:32:39;4.80;;;4.40;;
568;SDS011;269;48.884;9.192;2023-09-07T12:35:06;7.03;;;4.50;;
568;SDS011;269;48.884;9.192;2023-09-07T12:37:34;4.67;;;4.30;;
568;SDS011;269;48.884;9.192;2023-09-07T12:40:02;4.47;;;4.17;;
568;SDS011;269;48.884;9.192;2023-09-07T12:42:37;4.20;;;3.90;;
568;SDS011;269;48.884;9.192;2023-09-07T12:45:07;6.57;;;4.27;;
568;SDS011;269;48.884;9.192;2023-09-07T12:47:34;5.37;;;4.87;;
568;SDS011;269;48.884;9.192;2023-09-07T12:50:01;4.30;;;4.00;;
568;SDS011;269;48.884;9.192;2023-09-07T12:52:30;4.60;;;4.30;;
568;SDS011;269;48.884;9.192;2023-09-07T12:54:57;4.70;;;4.40;;
568;SDS011;269;48.884;9.192;2023-09-07T12:57:24;4.00;;;3.80;;
568;SDS011;269;48.884;9.192;2023-09-07T12:59:51;4.80;;;4.50;;
568;SDS011;269;48.884;9.192;2023-09-07T13:02:19;4.70;;;4.40;;
568;SDS011;269;48.884;9.192;2023-09-07T13:04:45;4.20;;;3.90;;
568;SDS011;269;48.884;9.192;2023-09-07T13:07:13;5.80;;;4.47;;
568;SDS011;269;48.884;9.192;2023-09-07T13:09:42;4.50;;;4.10;;
568;SDS011;269;48.884;9.192;2023-09-07T13:12:09;4.20;;;3.90;;
568;SDS011;269;48.884;9.192;2023-09-07T13:14:36;4.33;;;4.07;;
568;SDS011;269;48.884;9.192;2023-09-07T13:17:03;3.80;;;3.60;;
568;SDS011;269;48.884;9.192;2023-09-07T13:19:31;4.33;;;4.03;;
568;SDS011;269;48.884;9.192;2023-09-07T13:21:58;4.57;;;4.27;;
568;SDS011;269;48.884;9.192;2023-09-07T13:24:25;4.60;;;4.30;;
568;SDS011;269;48.884;9.192;2023-09-07T13:26:52;4.00;;;3.80;;
568;SDS011;269;48.884;9.192;2023-09-07T13:29:19;4.20;;;3.80;;
568;SDS011;269;48.884;9.192;2023-09-07T13:31:45;3.87;;;3.57;;
568;SDS011;269;48.884;9.192;2023-09-07T13:34:12;4.47;;;4.17;;
568;SDS011;269;48.884;9.192;2023-09-07T13:36:40;4.47;;;4.20;;
568;SDS011;269;48.884;9.192;2023-09-07T13:39:07;3.83;;;3.53;;
568;SDS011;269;48.884;9.192;2023-09-07T13:41:34;4.53;;;4.13;;
568;SDS011;269;48.884;9.192;2023-09-07T13:44:01;4.67;;;4.30;;
568;SDS011;269;48.884;9.192;2023-09-07T13:46:28;4.23;;;3.93;;
568;SDS011;269;48.884;9.192;2023-09-07T13:48:55;4.30;;;4.10;;
568;SDS011;269;48.884;9.192;2023-09-07T13:51:21;4.50;;;4.20;;
568;SDS011;269;48.884;9.192;2023-09-07T13:53:51;4.23;;;3.90;;
568;SDS011;269;48.884;9.192;2023-09-07T13:56:17;3.77;;;3.57;;
568;SDS011;269;48.884;9.192;2023-09-07T13:58:44;4.07;;;3.77;;
568;SDS011;269;48.884;9.192;2023-09-07T14:01:11;4.13;;;3.83;;
568;SDS011;269;48.884;9.192;2023-09-07T14:03:38;4.40;;;4.10;;
568;SDS011;269;48.884;9.192;2023-09-07T14:06:05;3.70;;;3.50;;
568;SDS011;269;48.884;9.192;2023-09-07T14:08:31;3.60;;;3.40;;
568;SDS011;269;48.884;9.192;2023-09-07T14:11:01;4.00;;;3.70;;
568;SDS011;269;48.884;9.192;2023-09-07T14:13:28;3.93;;;3.73;;
568;SDS011;269;48.884;9.192;2023-09-07T14:15:54;3.70;;;3.47;;
568;SDS011;269;48.884;9.192;2023-09-07T14:18:21;4.03;;;3.83;;
568;SDS011;269;48.884;9.192;2023-09-07T14:20:49;6.73;;;4.13;;
568;SDS011;269;48.884;9.192;2023-09-07T14:23:16;3.60;;;3.40;;
568;SDS011;269;48.884;9.192;2023-09-07T14:25:43;3.60;;;3.40;;
568;SDS011;269;48.884;9.192;2023-09-07T14:28:12;3.90;;;3.70;;
568;SDS011;269;48.884;9.192;2023-09-07T14:30:41;4.23;;;3.90;;
568;SDS011;269;48.884;9.192;2023-09-07T14:33:08;3.90;;;3.60;;
568;SDS011;269;48.884;9.192;2023-09-07T14:35:35;4.13;;;3.93;;
568;SDS011;269;48.884;9.192;2023-09-07T14:38:02;3.93;;;3.70;;
568;SDS011;269;48.884;9.192;2023-09-07T14:40:29;4.10;;;3.80;;
568;SDS011;269;48.884;9.192;2023-09-07T14:42:56;4.10;;;3.90;;
568;SDS011;269;48.884;9.192;2023-09-07T14:45:24;3.77;;;3.53;;
568;SDS011;269;48.884;9.192;2023-09-07T14:47:51;4.03;;;3.57;;
568;SDS011;269;48.884;9.192;2023-09-07T14:50:18;3.60;;;3.40;;
568;SDS011;269;48.884;9.192;2023-09-07T14:52:45;4.27;;;3.87;;
568;SDS011;269;48.884;9.192;2023-09-07T14:55:12;4.23;;;3.93;;
568;SDS011;269;48.884;9.192;2023-09-07T14:57:39;4.17;;;3.93;;
568;SDS011;269;48.884;9.192;2023-09-07T15:00:07;3.63;;;3.43;;
568;SDS011;269;48.884;9.192;2023-09-07T15:02:36;3.67;;;3.40;;
568;SDS011;269;48.884;9.192;2023-09-07T15:05:04;4.00;;;3.70;;
568;SDS011;269;48.884;9.192;2023-09-07T15:07:31;3.60;;;3.40;;
568;SDS011;269;48.884;9.192;2023-09-07T15:09:58;3.90;;;3.70;;
568;SDS011;269;48.884;9.192;2023-09-07T15:12:25;3.97;;;3.77;;
568;SDS011;269;48.884;9.192;2023-09-07T15:14:51;4.10;;;3.90;;
568;SDS011;269;48.884;9.192;2023-09-07T15:17:18;3.50;;;3.30;;
568;SDS011;269;48.884;9.192;2023-09-07T15:19:47;3.50;;;3.20;;
568;SDS011;269;48.884;9.192;2023-09-07T15:22:14;4.00;;;3.70;;
568;SDS011;269;48.884;9.192;2023-09-07T15:24:40;4.17;;;3.83;;
568;SDS011;269;48.884;9.192;2023-09-07T15:27:08;3.90;;;3.67;;
568;SDS011;269;48.884;9.192;2023-09-07T15:29:35;3.97;;;3.67;;
568;SDS011;269;48.884;9.192;2023-09-07T15:32:03;3.70;;;3.40;;
568;SDS011;269;48.884;9.192;2023-09-07T15:34:29;4.53;;;4.13;;
568;SDS011;269;48.884;9.192;2023-09-07T15:36:57;4.67;;;3.70;;
568;SDS011;269;48.884;9.192;2023-09-07T15:39:24;4.00;;;3.70;;
568;SDS011;269;48.884;9.192;2023-09-07T15:41:51;3.90;;;3.60;;
568;SDS011;269;48.884;9.192;2023-09-07T15:44:20;3.87;;;3.53;;
568;SDS011;269;48.884;9.192;2023-09-07T15:46:47;4.30;;;3.90;;
568;SDS011;269;48.884;9.192;2023-09-07T15:49:16;6.43;;;4.50;;